Impacts TAF Board
For situational awareness. Not to be used for flight planning purposes.
IDs:

KPIT - Pittsburgh Intl, PA, US

Issued at 0522 UTC 22 Oct 2021
Updated at 0557 UTC 22 Oct 2021
Potential Impact None Slight Moderate High
Time0551Z 22/06Z 22/07Z 22/08Z 22/09Z 22/10Z 22/11Z 22/12Z 22/13Z 22/14Z 22/15Z 22/16Z 22/17Z 22/18Z>>
Type OBS PRVL PRVL PRVL PRVL PRVL PRVL PRVL PRVL PRVL PRVL PRVL PRVL PRVL
VIS 10 >6 >6 >6 >6 >6 >6 6 6 6 6 6 6 6
CIG 32 25 25 25 25 15 15 7 7 7 7 7 7 7
Cover OVC OVC OVC OVC OVC OVC OVC BKN BKN BKN BKN BKN BKN BKN
FltCat VFR MVFR MVFR MVFR MVFR MVFR MVFR IFR IFR IFR IFR IFR IFR IFR
WX -- -- -- -- -- -- -- BR VCSH BR VCSH BR VCSH BR VCSH BR VCSH BR VCSH BR VCSH
WDir 240 270 270 270 270 260 260 260 260 260 260 260 260 260
WSpd 5 6 6 6 6 6 6 5 5 5 5 5 5 5
WGst -- -- -- -- -- -- -- -- -- -- -- -- -- --
Raw TAF
KPIT 220522Z 2206/2312 27006KT P6SM OVC025
  FM221000 26006KT P6SM OVC015
  FM221200 26005KT 6SM BR VCSH BKN007
  FM222000 28004KT P6SM OVC015


Raw METAR
KPIT 220551Z 24005KT 10SM FEW015 OVC032 11/07 A2992 RMK AO2 SLP137 60005 T01060072 10139 20106 51006
KPIT 220535Z 24008KT 10SM FEW015 OVC032 11/07 A2992 RMK AO2 T01060072
KPIT 220451Z 24005KT 10SM FEW011 OVC028 11/07 A2992 RMK AO2 SLP137 T01060072 402110089
KPIT 220351Z 28007KT 10SM OVC024 11/07 A2992 RMK AO2 SLP138 T01110067
KPIT 220251Z 27014G21KT 10SM OVC026 11/07 A2990 RMK AO2 SLP132 60005 T01110072 51026

METAR Board
Radar Display
Forecast Discussion
For situational awareness. Not to be used for flight planning purposes.